Time;durP1;ratioP1;P1;durP2;ratioP2;P2;SDS_P1;SDS_P2;PMS_P1;PMS_P2;Temp;Humidity;BMP_temperature;BMP_pressure;BME280_temperature;BME280_humidity;BME280_pressure;Samples;Min_cycle;Max_cycle;Signal;HPM_P1;HPM_P2
2023/08/26 00:01:49;;;;;;;10.73;6.10;;;21.30;99.90;;;;;;4960063;28;20650;-74
2023/08/26 00:04:15;;;;;;;6.53;5.57;;;21.30;99.90;;;;;;4957316;28;20606;-74
2023/08/26 00:06:41;;;;;;;7.50;6.37;;;21.30;99.90;;;;;;4959751;28;20207;-74
2023/08/26 00:09:06;;;;;;;7.30;6.40;;;21.20;99.90;;;;;;4958345;28;20204;-74
2023/08/26 00:11:32;;;;;;;8.87;6.40;;;21.20;99.90;;;;;;4966073;28;20192;-74
2023/08/26 00:13:58;;;;;;;7.63;6.07;;;21.20;99.90;;;;;;4956231;28;20270;-74
2023/08/26 00:16:23;;;;;;;6.30;5.57;;;21.10;99.90;;;;;;4956594;28;20224;-74
2023/08/26 00:18:49;;;;;;;8.43;5.77;;;21.00;99.90;;;;;;4958333;28;20180;-74
2023/08/26 00:21:17;;;;;;;6.90;6.20;;;21.00;99.90;;;;;;4957661;28;20227;-74
2023/08/26 00:23:43;;;;;;;8.90;6.87;;;21.00;99.90;;;;;;4958122;28;20246;-74
2023/08/26 00:26:11;;;;;;;8.10;5.87;;;21.00;99.90;;;;;;4972567;28;20662;-74
2023/08/26 00:28:37;;;;;;;7.73;5.53;;;21.00;99.90;;;;;;4959068;28;20196;-74
2023/08/26 00:31:03;;;;;;;6.80;6.10;;;21.10;99.90;;;;;;4955990;28;20603;-74
2023/08/26 00:33:29;;;;;;;5.70;5.20;;;21.10;99.90;;;;;;4957583;28;20627;-74
2023/08/26 00:35:55;;;;;;;9.30;6.47;;;21.20;99.90;;;;;;4957225;28;20600;-74
2023/08/26 00:38:22;;;;;;;7.20;6.50;;;21.20;99.90;;;;;;4971450;28;20674;-74
2023/08/26 00:40:48;;;;;;;6.40;5.70;;;21.20;99.90;;;;;;4957238;28;20612;-74
2023/08/26 00:43:14;;;;;;;6.67;5.97;;;21.20;99.90;;;;;;4956679;28;20221;-74
2023/08/26 00:45:43;;;;;;;9.10;6.53;;;21.20;99.90;;;;;;4956501;28;20607;-74
2023/08/26 00:48:11;;;;;;;8.27;6.40;;;21.30;99.90;;;;;;4955833;28;20196;-73
2023/08/26 00:50:41;;;;;;;7.70;5.90;;;21.30;99.90;;;;;;4973509;28;20651;-73
2023/08/26 00:53:11;;;;;;;5.97;5.37;;;21.30;99.90;;;;;;4959680;28;20631;-74
2023/08/26 00:55:39;;;;;;;6.47;5.73;;;21.30;99.90;;;;;;4973461;28;20594;-73
2023/08/26 00:58:06;;;;;;;6.30;5.70;;;21.30;99.90;;;;;;4955709;28;20616;-73
2023/08/26 01:00:36;;;;;;;8.80;5.97;;;21.30;99.90;;;;;;4958579;28;20612;-73
2023/08/26 01:03:03;;;;;;;5.80;5.30;;;21.30;99.90;;;;;;4939617;28;20643;-73
2023/08/26 01:05:29;;;;;;;6.17;5.57;;;21.30;99.90;;;;;;4955331;28;20689;-74
2023/08/26 01:07:56;;;;;;;9.33;5.30;;;21.30;99.90;;;;;;4963906;28;20730;-73
2023/08/26 01:10:36;;;;;;;6.13;4.80;;;21.30;99.90;;;;;;4956535;28;21318;-73
2023/08/26 01:13:08;;;;;;;7.67;5.80;;;21.30;99.90;;;;;;4956143;28;20654;-74
2023/08/26 01:15:40;;;;;;;6.90;6.13;;;21.30;99.90;;;;;;4959096;28;20604;-73
2023/08/26 01:18:07;;;;;;;6.20;4.67;;;21.30;99.90;;;;;;4957554;28;20596;-73
2023/08/26 01:20:34;;;;;;;5.07;3.90;;;21.20;99.90;;;;;;4972649;28;20703;-74
2023/08/26 01:23:05;;;;;;;5.13;4.37;;;21.20;99.90;;;;;;4955116;28;20735;-73
2023/08/26 01:25:31;;;;;;;7.40;4.73;;;21.20;99.90;;;;;;4949297;28;20628;-73
2023/08/26 01:27:57;;;;;;;6.10;4.70;;;21.20;99.90;;;;;;4965672;28;20603;-74
2023/08/26 01:30:27;;;;;;;4.63;3.60;;;21.10;99.90;;;;;;4956640;28;21007;-73
2023/08/26 01:33:06;;;;;;;8.23;3.90;;;21.10;99.90;;;;;;4957467;28;20794;-73
2023/08/26 01:35:37;;;;;;;8.33;4.67;;;21.00;99.90;;;;;;4940785;28;20591;-73
2023/08/26 01:38:04;;;;;;;6.13;3.90;;;21.00;99.90;;;;;;4956084;28;20615;-74
2023/08/26 01:40:33;;;;;;;8.30;4.63;;;20.90;99.90;;;;;;4956476;28;20615;-74
2023/08/26 01:43:00;;;;;;;4.80;4.03;;;20.80;99.90;;;;;;4971871;28;20640;-74
2023/08/26 01:45:26;;;;;;;6.77;4.50;;;20.70;99.90;;;;;;4956076;28;20713;-74
2023/08/26 01:47:51;;;;;;;8.53;4.00;;;20.60;99.90;;;;;;4939970;28;20780;-74
2023/08/26 01:50:17;;;;;;;5.30;3.40;;;20.50;99.90;;;;;;4940837;28;21359;-74
2023/08/26 01:52:42;;;;;;;4.90;3.97;;;20.40;99.90;;;;;;4970855;28;20763;-74
2023/08/26 01:55:09;;;;;;;4.87;4.00;;;20.40;99.90;;;;;;4956619;28;20183;-74
2023/08/26 01:57:37;;;;;;;5.60;3.87;;;20.20;99.90;;;;;;4954622;28;20702;-73
2023/08/26 02:00:05;;;;;;;5.43;4.47;;;20.10;99.90;;;;;;4970832;28;20691;-73
2023/08/26 02:02:40;;;;;;;6.70;4.50;;;20.10;99.90;;;;;;4969819;28;20270;-73
2023/08/26 02:05:06;;;;;;;5.67;4.20;;;19.90;99.90;;;;;;4928927;28;20702;-74
2023/08/26 02:07:32;;;;;;;7.30;4.20;;;19.80;99.90;;;;;;4972447;28;20180;-74
2023/08/26 02:09:58;;;;;;;6.60;4.00;;;19.70;99.90;;;;;;4940097;28;20652;-74
2023/08/26 02:12:24;;;;;;;5.97;4.00;;;19.60;99.90;;;;;;4953817;28;20227;-74
2023/08/26 02:14:49;;;;;;;7.03;4.20;;;19.50;99.90;;;;;;4957041;28;20180;-74
2023/08/26 02:17:15;;;;;;;5.33;3.63;;;19.40;99.90;;;;;;4957332;28;21228;-74
2023/08/26 02:19:40;;;;;;;6.37;3.50;;;19.30;99.90;;;;;;4954052;28;20188;-74
2023/08/26 02:22:08;;;;;;;7.60;3.67;;;19.20;99.90;;;;;;4954352;28;20581;-74
2023/08/26 02:24:34;;;;;;;4.70;2.73;;;19.10;99.90;;;;;;4956244;28;21434;-74
2023/08/26 02:27:00;;;;;;;5.20;2.60;;;19.00;99.90;;;;;;4955481;28;20674;-74
2023/08/26 02:29:26;;;;;;;5.70;1.90;;;18.90;99.90;;;;;;4955393;28;20215;-74
2023/08/26 02:31:52;;;;;;;9.30;2.00;;;18.90;99.90;;;;;;4956798;28;20635;-73
2023/08/26 02:34:17;;;;;;;4.60;2.17;;;18.80;99.90;;;;;;4957809;28;20184;-74
2023/08/26 02:36:43;;;;;;;3.53;1.93;;;18.80;99.90;;;;;;4956242;28;20801;-73
2023/08/26 02:39:09;;;;;;;3.77;2.73;;;18.70;99.90;;;;;;4956404;28;20532;-73
2023/08/26 02:41:34;;;;;;;4.40;2.33;;;18.60;99.90;;;;;;4954844;28;20583;-74
2023/08/26 02:44:00;;;;;;;4.60;2.33;;;18.50;99.90;;;;;;4941765;28;20191;-74
2023/08/26 02:46:26;;;;;;;3.97;1.83;;;18.50;99.90;;;;;;4959088;28;20191;-74
2023/08/26 02:48:52;;;;;;;3.03;2.00;;;18.40;99.90;;;;;;4955909;28;20635;-74
2023/08/26 02:51:18;;;;;;;4.40;1.83;;;18.40;99.90;;;;;;4953865;28;20179;-74
2023/08/26 02:53:43;;;;;;;3.50;1.83;;;18.30;99.90;;;;;;4938640;28;20675;-74
2023/08/26 02:56:09;;;;;;;4.23;2.00;;;18.30;99.90;;;;;;4940211;28;20191;-74
2023/08/26 02:58:34;;;;;;;10.03;2.20;;;18.20;99.90;;;;;;4955364;28;20267;-74
2023/08/26 03:01:01;;;;;;;4.20;1.50;;;18.20;99.90;;;;;;4973832;28;20184;-73
2023/08/26 03:03:29;;;;;;;3.60;1.30;;;18.10;99.90;;;;;;4977150;28;20200;-74
2023/08/26 03:05:59;;;;;;;2.97;1.10;;;18.10;99.90;;;;;;4959866;28;20939;-74
2023/08/26 03:08:25;;;;;;;3.30;1.40;;;18.00;99.90;;;;;;4960804;28;20718;-74
2023/08/26 03:10:59;;;;;;;3.10;1.30;;;18.00;99.90;;;;;;4947332;28;20995;-74
2023/08/26 03:13:25;;;;;;;3.47;1.40;;;17.90;99.90;;;;;;4959079;28;20653;-74
2023/08/26 03:15:51;;;;;;;4.47;1.50;;;17.90;99.90;;;;;;4959261;28;21200;-74
2023/08/26 03:18:17;;;;;;;4.20;1.10;;;17.90;99.90;;;;;;4957615;28;20206;-74
2023/08/26 03:20:42;;;;;;;3.23;1.30;;;17.80;99.90;;;;;;4942009;28;20214;-74
2023/08/26 03:23:08;;;;;;;4.07;1.77;;;17.80;99.90;;;;;;4957714;28;20634;-74
2023/08/26 03:25:40;;;;;;;3.37;1.17;;;17.80;99.90;;;;;;4958311;28;20184;-74
2023/08/26 03:28:08;;;;;;;2.87;1.00;;;17.70;99.90;;;;;;4959772;28;20551;-75
2023/08/26 03:30:36;;;;;;;4.50;1.10;;;17.70;99.90;;;;;;4957814;28;21134;-75
2023/08/26 03:33:03;;;;;;;3.83;1.50;;;17.70;99.90;;;;;;4962415;28;20721;-74
2023/08/26 03:35:29;;;;;;;3.90;1.40;;;17.70;99.90;;;;;;4957968;28;20834;-74
2023/08/26 03:37:55;;;;;;;2.80;1.30;;;17.70;99.90;;;;;;4959402;28;21212;-75
2023/08/26 03:40:23;;;;;;;3.33;1.20;;;17.60;99.90;;;;;;4942377;28;20638;-74
2023/08/26 03:42:50;;;;;;;4.27;1.10;;;17.60;99.90;;;;;;4974254;28;20242;-74
2023/08/26 03:45:16;;;;;;;2.80;0.93;;;17.60;99.90;;;;;;4958805;28;20700;-74
2023/08/26 03:47:42;;;;;;;4.13;1.23;;;17.60;99.90;;;;;;4966724;28;21322;-74
2023/08/26 03:50:08;;;;;;;2.20;1.50;;;17.60;99.90;;;;;;4956965;28;20647;-75
2023/08/26 03:52:34;;;;;;;2.03;0.83;;;17.50;99.90;;;;;;4955383;28;20208;-75
2023/08/26 03:55:00;;;;;;;3.10;1.00;;;17.60;99.90;;;;;;4940802;28;20612;-77
2023/08/26 03:57:26;;;;;;;5.47;1.13;;;17.50;99.90;;;;;;4958436;28;20503;-77
2023/08/26 03:59:52;;;;;;;3.33;1.00;;;17.50;99.90;;;;;;4957760;28;20599;-77
2023/08/26 04:02:18;;;;;;;3.00;0.93;;;17.50;99.90;;;;;;4959751;28;20231;-77
2023/08/26 04:04:43;;;;;;;4.43;1.10;;;17.50;99.90;;;;;;4942827;28;20195;-76
2023/08/26 04:07:09;;;;;;;2.43;1.13;;;17.50;99.90;;;;;;4959170;28;20187;-76
2023/08/26 04:09:35;;;;;;;3.60;1.00;;;17.50;99.90;;;;;;4963795;28;20226;-77
2023/08/26 04:12:02;;;;;;;3.40;1.20;;;17.40;99.90;;;;;;4964316;28;20732;-77
2023/08/26 04:14:28;;;;;;;4.33;1.20;;;17.40;99.90;;;;;;4946629;28;20180;-77
2023/08/26 04:16:54;;;;;;;3.63;0.97;;;17.40;99.90;;;;;;4966417;28;20601;-77
2023/08/26 04:19:20;;;;;;;2.30;1.20;;;17.30;99.90;;;;;;4947977;28;22409;-76
2023/08/26 04:21:46;;;;;;;2.23;1.10;;;17.30;99.90;;;;;;4953278;28;20379;-76
2023/08/26 04:24:12;;;;;;;2.93;1.20;;;17.20;99.90;;;;;;4963990;28;20928;-76
2023/08/26 04:26:39;;;;;;;2.63;1.20;;;17.20;99.90;;;;;;4981393;28;20594;-77
2023/08/26 04:29:05;;;;;;;2.47;0.93;;;17.20;99.90;;;;;;4980777;28;20634;-76
2023/08/26 04:31:31;;;;;;;3.17;1.20;;;17.10;99.90;;;;;;4966046;28;20183;-77
2023/08/26 04:33:57;;;;;;;3.10;0.90;;;17.10;99.90;;;;;;4963708;28;21837;-77
2023/08/26 04:36:23;;;;;;;2.13;0.83;;;17.00;99.90;;;;;;4947243;28;20602;-76
2023/08/26 04:38:48;;;;;;;3.03;1.00;;;17.00;99.90;;;;;;4965817;28;20618;-76
2023/08/26 04:41:14;;;;;;;2.17;0.87;;;17.00;99.90;;;;;;4963402;28;20231;-76
2023/08/26 04:43:40;;;;;;;3.30;1.00;;;16.90;99.90;;;;;;4981905;28;20266;-77
2023/08/26 04:46:06;;;;;;;3.43;0.83;;;16.90;99.90;;;;;;4964615;28;20208;-77
2023/08/26 04:48:33;;;;;;;4.30;0.90;;;16.80;99.90;;;;;;4967069;28;20634;-76
2023/08/26 04:50:59;;;;;;;2.47;1.20;;;16.80;99.90;;;;;;4951224;28;20214;-78
2023/08/26 04:53:25;;;;;;;2.33;0.90;;;16.80;99.90;;;;;;4960227;28;20638;-77
2023/08/26 04:55:51;;;;;;;2.87;0.80;;;16.80;99.90;;;;;;4966221;28;21997;-76
2023/08/26 04:58:18;;;;;;;6.13;0.83;;;16.80;99.90;;;;;;4966943;28;20270;-75
2023/08/26 05:00:45;;;;;;;4.23;0.83;;;16.70;99.90;;;;;;4966965;28;20605;-76
2023/08/26 05:03:10;;;;;;;2.67;1.00;;;16.70;99.90;;;;;;4949975;28;20665;-76
2023/08/26 05:05:40;;;;;;;3.37;0.90;;;16.70;99.90;;;;;;4942984;28;20658;-76
2023/08/26 05:08:06;;;;;;;1.80;0.73;;;16.70;99.90;;;;;;4964320;28;20266;-76
2023/08/26 05:10:32;;;;;;;3.80;0.90;;;16.70;99.90;;;;;;4983154;28;20749;-76
2023/08/26 05:12:57;;;;;;;2.43;0.80;;;16.70;99.90;;;;;;4967749;28;20652;-77
2023/08/26 05:15:23;;;;;;;2.13;0.87;;;16.70;99.90;;;;;;4968513;28;20275;-76
2023/08/26 05:17:49;;;;;;;3.33;0.80;;;16.70;99.90;;;;;;4934998;28;20608;-76
2023/08/26 05:20:15;;;;;;;2.57;0.90;;;16.70;99.90;;;;;;4982268;28;20243;-76
2023/08/26 05:22:41;;;;;;;4.77;1.10;;;16.70;99.90;;;;;;4963914;28;20717;-76
2023/08/26 05:25:08;;;;;;;1.93;0.80;;;16.80;99.90;;;;;;4967737;28;20195;-76
2023/08/26 05:27:34;;;;;;;2.47;0.87;;;16.80;99.90;;;;;;4967466;28;21121;-76
2023/08/26 05:29:59;;;;;;;2.93;0.90;;;16.80;99.90;;;;;;4963414;28;20669;-76
2023/08/26 05:32:25;;;;;;;4.23;0.90;;;16.80;99.90;;;;;;4983685;28;20202;-77
2023/08/26 05:34:51;;;;;;;4.10;0.90;;;16.80;99.90;;;;;;4989674;28;20642;-76
2023/08/26 05:37:17;;;;;;;3.33;0.80;;;16.80;99.90;;;;;;4983957;28;20188;-76
2023/08/26 05:39:43;;;;;;;3.20;1.00;;;16.90;99.90;;;;;;4968862;28;20718;-76
2023/08/26 05:42:09;;;;;;;3.80;0.90;;;16.90;99.90;;;;;;4967912;28;21156;-74
2023/08/26 05:44:35;;;;;;;2.47;0.90;;;16.90;99.90;;;;;;4979646;28;20195;-74
2023/08/26 05:47:01;;;;;;;2.17;0.93;;;16.90;99.90;;;;;;4964541;28;20187;-74
2023/08/26 05:49:27;;;;;;;2.07;1.13;;;17.00;99.90;;;;;;4959197;28;21127;-74
2023/08/26 05:51:53;;;;;;;4.67;0.70;;;17.10;99.90;;;;;;4964478;28;20766;-75
2023/08/26 05:54:19;;;;;;;3.40;0.90;;;17.10;99.90;;;;;;4939814;28;20614;-75
2023/08/26 05:56:44;;;;;;;3.23;0.90;;;17.20;99.90;;;;;;4943178;28;20569;-74
2023/08/26 05:59:10;;;;;;;3.83;0.80;;;17.30;99.90;;;;;;4943633;28;20226;-75
2023/08/26 06:01:36;;;;;;;2.93;0.80;;;17.40;99.90;;;;;;4961343;28;20427;-75
2023/08/26 06:04:01;;;;;;;1.93;1.20;;;17.40;99.90;;;;;;4944113;28;20198;-74
2023/08/26 06:06:28;;;;;;;1.97;0.80;;;17.50;99.90;;;;;;4963387;28;20180;-75
2023/08/26 06:08:54;;;;;;;3.37;1.77;;;17.60;99.90;;;;;;4943716;28;20275;-74
2023/08/26 06:11:20;;;;;;;3.30;1.03;;;17.70;99.90;;;;;;4929618;28;20654;-75
2023/08/26 06:13:46;;;;;;;3.73;0.90;;;17.70;99.90;;;;;;4958368;28;21563;-75
2023/08/26 06:16:19;;;;;;;2.27;0.90;;;17.80;99.90;;;;;;4956866;28;22044;-75
2023/08/26 06:18:48;;;;;;;2.80;0.70;;;17.90;99.90;;;;;;4963455;28;21064;-74
2023/08/26 06:21:14;;;;;;;1.70;0.70;;;17.90;99.90;;;;;;4942633;28;20592;-74
2023/08/26 06:23:40;;;;;;;1.60;0.80;;;18.00;99.90;;;;;;4961544;28;20623;-75
2023/08/26 06:26:06;;;;;;;2.00;0.70;;;18.10;99.90;;;;;;4962357;28;20591;-74
2023/08/26 06:28:32;;;;;;;4.07;0.87;;;18.20;99.90;;;;;;4978623;28;20596;-74
2023/08/26 06:30:59;;;;;;;1.70;0.90;;;18.30;99.90;;;;;;4942154;28;20673;-74
2023/08/26 06:33:29;;;;;;;2.03;0.60;;;18.50;99.90;;;;;;4961834;28;20627;-74
2023/08/26 06:35:55;;;;;;;2.17;0.70;;;19.30;99.90;;;;;;4967723;28;20583;-74
2023/08/26 06:38:22;;;;;;;2.43;0.70;;;20.20;99.90;;;;;;4950091;28;20174;-76
2023/08/26 06:40:57;;;;;;;1.93;0.80;;;21.20;99.90;;;;;;4968180;28;20614;-77
2023/08/26 06:43:24;;;;;;;3.63;0.87;;;22.20;99.90;;;;;;4969005;28;20626;-76
2023/08/26 06:45:50;;;;;;;1.97;0.70;;;23.30;99.90;;;;;;4981678;28;20586;-76
2023/08/26 06:48:16;;;;;;;2.37;0.70;;;24.30;99.90;;;;;;4948461;28;20622;-76
2023/08/26 06:50:52;;;;;;;4.50;0.70;;;25.30;99.90;;;;;;4969000;28;20682;-76
2023/08/26 06:53:21;;;;;;;2.10;0.70;;;26.20;99.90;;;;;;4965175;28;20626;-76
2023/08/26 06:55:52;;;;;;;2.23;0.60;;;27.20;99.90;;;;;;4951542;28;20595;-76
2023/08/26 06:58:19;;;;;;;2.57;0.73;;;28.00;99.90;;;;;;4967988;28;21184;-76
2023/08/26 07:00:45;;;;;;;2.10;0.60;;;28.80;99.90;;;;;;4966722;28;20593;-76
2023/08/26 07:03:11;;;;;;;4.93;0.70;;;29.50;99.90;;;;;;4968503;28;20641;-76
2023/08/26 07:05:44;;;;;;;3.80;0.60;;;30.20;99.90;;;;;;4964887;28;20212;-76
2023/08/26 07:08:10;;;;;;;2.20;0.60;;;30.80;99.90;;;;;;4967615;28;21174;-76
2023/08/26 07:10:36;;;;;;;1.97;0.53;;;31.40;99.90;;;;;;4968225;28;20663;-76
2023/08/26 07:13:02;;;;;;;1.87;0.63;;;31.90;99.90;;;;;;4970597;28;20223;-77
2023/08/26 07:15:27;;;;;;;2.30;0.50;;;32.50;99.90;;;;;;4982643;28;20188;-76
2023/08/26 07:17:54;;;;;;;2.37;0.70;;;33.00;99.90;;;;;;4967483;28;20592;-76
2023/08/26 07:20:20;;;;;;;2.57;0.60;;;33.40;99.90;;;;;;4963372;28;20194;-76
2023/08/26 07:22:46;;;;;;;2.03;0.80;;;33.80;99.90;;;;;;4964646;28;20634;-76
2023/08/26 07:25:12;;;;;;;2.00;0.60;;;34.10;99.90;;;;;;4965067;28;20625;-76
2023/08/26 07:27:39;;;;;;;2.47;0.70;;;34.30;99.90;;;;;;4967414;28;20591;-76
2023/08/26 07:30:05;;;;;;;3.30;1.10;;;34.60;99.90;;;;;;4965602;28;20649;-76
2023/08/26 07:32:31;;;;;;;2.03;0.70;;;35.00;99.10;;;;;;4966712;28;20618;-75
2023/08/26 07:34:57;;;;;;;1.73;0.60;;;35.20;98.10;;;;;;4964885;28;20605;-75
2023/08/26 07:37:23;;;;;;;1.70;0.50;;;35.50;96.10;;;;;;4964501;28;20705;-76
2023/08/26 07:39:49;;;;;;;1.77;0.60;;;35.60;94.80;;;;;;4962413;28;20644;-76
2023/08/26 07:42:16;;;;;;;2.23;0.60;;;35.90;94.30;;;;;;4951249;28;20211;-76
2023/08/26 07:44:42;;;;;;;1.70;0.50;;;36.20;93.10;;;;;;4944336;28;20606;-75
2023/08/26 07:47:07;;;;;;;1.93;0.63;;;36.50;92.30;;;;;;4966685;28;20653;-75
2023/08/26 07:49:33;;;;;;;1.60;0.67;;;36.80;91.30;;;;;;4980060;28;20219;-75
2023/08/26 07:51:59;;;;;;;1.83;0.63;;;37.10;90.40;;;;;;4965818;28;20207;-76
2023/08/26 07:54:24;;;;;;;3.00;0.60;;;37.30;88.30;;;;;;4966010;28;20639;-76
2023/08/26 07:56:50;;;;;;;1.50;0.50;;;37.40;84.50;;;;;;4963887;28;20206;-75
2023/08/26 07:59:16;;;;;;;1.40;0.60;;;37.60;82.50;;;;;;4965335;28;20191;-76
2023/08/26 08:01:42;;;;;;;1.57;0.50;;;37.80;79.80;;;;;;4965194;28;20203;-75
2023/08/26 08:04:07;;;;;;;4.20;0.60;;;37.80;77.90;;;;;;4964850;28;20369;-75
2023/08/26 08:06:33;;;;;;;1.80;0.70;;;37.80;75.50;;;;;;4948238;28;20571;-75
2023/08/26 08:08:59;;;;;;;1.40;0.50;;;37.80;74.40;;;;;;4965572;28;20692;-75
2023/08/26 08:11:25;;;;;;;3.10;0.50;;;37.70;72.60;;;;;;4963612;28;20188;-75
2023/08/26 08:13:51;;;;;;;1.50;0.70;;;37.60;70.50;;;;;;4962760;28;22063;-75
2023/08/26 08:16:16;;;;;;;1.60;0.50;;;37.40;68.70;;;;;;4948250;28;20319;-76
2023/08/26 08:18:42;;;;;;;2.73;0.80;;;37.20;68.00;;;;;;4964767;28;20706;-76
2023/08/26 08:21:09;;;;;;;1.80;0.50;;;37.20;67.30;;;;;;4964163;28;20709;-74
2023/08/26 08:23:36;;;;;;;1.40;0.50;;;37.10;66.80;;;;;;4983228;28;20242;-75
2023/08/26 08:26:01;;;;;;;2.77;0.53;;;37.10;65.30;;;;;;4963091;28;20613;-75
2023/08/26 08:28:27;;;;;;;2.27;0.60;;;37.00;65.00;;;;;;4963203;28;20608;-74
2023/08/26 08:30:53;;;;;;;1.40;0.50;;;37.10;65.10;;;;;;4966393;28;20207;-75
2023/08/26 08:33:19;;;;;;;2.37;0.60;;;37.30;64.20;;;;;;4964723;28;20212;-74
2023/08/26 08:35:44;;;;;;;1.33;0.40;;;37.50;63.60;;;;;;4966619;28;20242;-75
2023/08/26 08:38:10;;;;;;;3.23;0.50;;;37.80;63.70;;;;;;4963954;28;20183;-75
2023/08/26 08:40:37;;;;;;;1.50;0.50;;;38.00;61.90;;;;;;4965948;28;20214;-74
2023/08/26 08:43:05;;;;;;;1.57;0.50;;;38.20;61.00;;;;;;4968267;28;20579;-75
2023/08/26 08:45:33;;;;;;;1.20;0.50;;;38.50;59.30;;;;;;4967921;28;20602;-75
2023/08/26 08:47:59;;;;;;;2.80;0.87;;;38.60;59.00;;;;;;4964748;28;21175;-75
2023/08/26 08:50:25;;;;;;;2.13;0.70;;;38.90;58.40;;;;;;4963384;28;20680;-75
2023/08/26 08:52:55;;;;;;;1.20;0.40;;;39.10;58.20;;;;;;4962865;28;20227;-74
2023/08/26 08:55:21;;;;;;;1.50;0.40;;;39.30;56.20;;;;;;4947563;28;20596;-75
2023/08/26 08:57:49;;;;;;;2.10;0.60;;;39.50;56.20;;;;;;4965507;28;20686;-75
2023/08/26 09:00:16;;;;;;;2.60;0.60;;;39.70;55.40;;;;;;4974629;28;20661;-75
2023/08/26 09:02:45;;;;;;;1.73;0.60;;;39.90;55.10;;;;;;4963008;28;20717;-75
2023/08/26 09:05:12;;;;;;;2.00;0.80;;;40.10;54.10;;;;;;4963776;28;20591;-75
2023/08/26 09:07:40;;;;;;;3.27;0.97;;;40.30;54.10;;;;;;4964425;28;20638;-75
2023/08/26 09:10:11;;;;;;;1.73;0.60;;;40.40;53.20;;;;;;4964747;28;20631;-75
2023/08/26 09:12:38;;;;;;;1.80;0.50;;;40.60;52.20;;;;;;4965414;28;20654;-76
2023/08/26 09:15:04;;;;;;;1.97;0.50;;;40.60;52.10;;;;;;4962952;28;20596;-75
2023/08/26 09:17:30;;;;;;;1.70;0.40;;;40.70;51.40;;;;;;4965198;28;20604;-75
2023/08/26 09:19:58;;;;;;;2.40;0.57;;;40.80;51.10;;;;;;4960828;28;21208;-75
2023/08/26 09:22:25;;;;;;;1.80;0.50;;;41.00;50.60;;;;;;4964973;28;20207;-76
2023/08/26 09:24:58;;;;;;;1.20;0.40;;;41.20;50.40;;;;;;4964575;28;20607;-75
2023/08/26 09:27:24;;;;;;;1.53;0.40;;;41.30;49.30;;;;;;4962398;28;20647;-75
2023/08/26 09:29:54;;;;;;;1.30;0.50;;;41.60;50.20;;;;;;4963304;28;20638;-75
2023/08/26 09:32:34;;;;;;;1.47;0.60;;;41.70;48.60;;;;;;4964605;28;20208;-75
2023/08/26 09:35:13;;;;;;;1.50;0.43;;;41.90;48.20;;;;;;4965559;28;20650;-75
2023/08/26 09:37:41;;;;;;;1.20;0.40;;;42.00;47.20;;;;;;4966003;28;20599;-73
2023/08/26 09:40:11;;;;;;;1.20;0.30;;;42.00;47.20;;;;;;4963285;28;20616;-76
2023/08/26 09:42:39;;;;;;;2.13;0.50;;;42.10;46.80;;;;;;4963785;28;20681;-75
2023/08/26 09:45:10;;;;;;;1.63;0.43;;;42.20;46.30;;;;;;4978275;28;20603;-76
2023/08/26 09:47:40;;;;;;;1.40;0.50;;;42.20;44.90;;;;;;4958991;28;21234;-76
2023/08/26 09:50:08;;;;;;;1.30;0.40;;;42.20;44.80;;;;;;4948069;28;20686;-75
2023/08/26 09:52:48;;;;;;;1.40;0.40;;;42.20;45.00;;;;;;4964434;28;20633;-75
2023/08/26 09:55:14;;;;;;;1.20;0.40;;;42.30;44.10;;;;;;4959372;28;20599;-75
2023/08/26 09:57:41;;;;;;;1.40;0.50;;;42.40;45.00;;;;;;4962737;28;20618;-75
2023/08/26 10:00:11;;;;;;;1.30;0.40;;;42.50;44.70;;;;;;4960203;28;20627;-75
2023/08/26 10:02:48;;;;;;;1.70;0.50;;;42.60;44.20;;;;;;4969421;28;20704;-74
2023/08/26 10:05:21;;;;;;;1.50;0.37;;;42.70;43.00;;;;;;4965871;28;20638;-75
2023/08/26 10:11:40;;;;;;;1.50;0.50;;;42.30;42.30;;;;;;4966859;28;21184;-75
2023/08/26 10:14:11;;;;;;;1.30;0.40;;;42.20;42.50;;;;;;4973709;28;20602;-75
2023/08/26 10:16:38;;;;;;;2.30;0.50;;;42.10;41.90;;;;;;4963571;28;20605;-75
2023/08/26 10:19:05;;;;;;;1.60;0.40;;;42.10;41.90;;;;;;4966909;28;20599;-75
2023/08/26 10:21:32;;;;;;;1.33;0.50;;;42.00;41.50;;;;;;4969899;28;20642;-75
2023/08/26 10:23:59;;;;;;;1.20;0.40;;;42.00;41.10;;;;;;4961421;28;20709;-75
2023/08/26 10:26:26;;;;;;;1.27;0.50;;;41.80;41.10;;;;;;4956617;28;20603;-75
2023/08/26 10:28:54;;;;;;;1.90;0.50;;;41.70;41.00;;;;;;4959064;28;20603;-75
2023/08/26 10:31:20;;;;;;;2.03;0.60;;;41.50;40.40;;;;;;4974029;28;20603;-76
2023/08/26 10:34:01;;;;;;;1.30;0.50;;;41.30;40.60;;;;;;4967184;28;21010;-75
2023/08/26 10:36:28;;;;;;;1.80;0.60;;;41.10;38.90;;;;;;4964079;28;20602;-75
2023/08/26 10:38:56;;;;;;;1.53;0.57;;;40.60;39.80;;;;;;4969850;28;20649;-75
2023/08/26 10:41:22;;;;;;;1.52;0.60;;;40.00;39.90;;;;;;4967004;28;20761;-75
2023/08/26 10:43:52;;;;;;;2.03;0.50;;;39.20;39.00;;;;;;4969514;28;20334;-74
2023/08/26 10:46:18;;;;;;;1.70;0.40;;;38.50;38.80;;;;;;4964841;28;20210;-75
2023/08/26 10:48:56;;;;;;;1.60;0.50;;;37.50;38.70;;;;;;4967057;28;20710;-75
2023/08/26 10:51:22;;;;;;;1.40;0.50;;;36.50;38.50;;;;;;4965997;28;20971;-75
2023/08/26 10:53:48;;;;;;;1.83;0.40;;;35.70;40.00;;;;;;4965453;28;20640;-75
2023/08/26 10:56:18;;;;;;;1.50;0.40;;;35.20;40.90;;;;;;4958386;28;20599;-76
2023/08/26 10:58:50;;;;;;;1.40;0.50;;;34.80;41.40;;;;;;4957745;28;20192;-75
2023/08/26 11:01:16;;;;;;;2.22;0.60;;;34.70;42.40;;;;;;4982200;28;20735;-75
2023/08/26 11:03:45;;;;;;;1.67;0.60;;;34.50;41.50;;;;;;4964080;28;20580;-75
2023/08/26 11:06:18;;;;;;;1.40;0.60;;;34.70;42.70;;;;;;4969356;28;20618;-75
2023/08/26 11:08:52;;;;;;;1.40;0.50;;;34.90;43.10;;;;;;4967448;28;20932;-74
2023/08/26 11:11:18;;;;;;;1.60;0.50;;;35.00;43.30;;;;;;4968801;28;20634;-74
2023/08/26 11:13:45;;;;;;;2.20;0.60;;;35.00;42.80;;;;;;4963142;28;20622;-75
2023/08/26 11:16:11;;;;;;;1.40;0.50;;;35.00;42.50;;;;;;4980828;28;20187;-75
2023/08/26 11:18:37;;;;;;;4.70;0.50;;;34.90;42.90;;;;;;4962601;28;20599;-75
2023/08/26 11:21:04;;;;;;;2.13;0.50;;;34.90;42.90;;;;;;4969979;28;20618;-75
2023/08/26 11:23:32;;;;;;;2.37;1.43;;;35.00;43.50;;;;;;4963787;28;20214;-75
2023/08/26 11:25:58;;;;;;;1.30;0.50;;;35.00;43.30;;;;;;4978383;28;21200;-75
2023/08/26 11:28:26;;;;;;;2.33;0.50;;;35.00;43.50;;;;;;4967563;28;20602;-74
2023/08/26 11:30:52;;;;;;;1.70;0.80;;;35.00;43.00;;;;;;4963535;28;20643;-75
2023/08/26 11:33:20;;;;;;;2.33;0.90;;;35.00;43.20;;;;;;4965499;28;20630;-76
2023/08/26 11:35:47;;;;;;;1.83;0.80;;;35.00;43.40;;;;;;4975480;28;20623;-76
2023/08/26 11:38:14;;;;;;;1.67;0.70;;;35.00;43.20;;;;;;4973857;28;20646;-76
2023/08/26 11:40:41;;;;;;;3.13;0.77;;;34.90;43.30;;;;;;4974156;28;20600;-77
2023/08/26 11:43:13;;;;;;;1.40;0.60;;;35.00;43.60;;;;;;4970481;28;20661;-76
2023/08/26 11:45:42;;;;;;;1.80;0.80;;;35.00;43.20;;;;;;4968397;28;20674;-77
2023/08/26 11:48:11;;;;;;;1.83;0.60;;;34.90;43.10;;;;;;4970066;28;21156;-76
2023/08/26 11:50:37;;;;;;;2.53;1.10;;;34.90;43.00;;;;;;4947119;28;20751;-76
2023/08/26 11:53:04;;;;;;;3.80;1.10;;;34.70;43.00;;;;;;4953296;28;20634;-76
2023/08/26 11:55:31;;;;;;;2.40;1.70;;;34.50;42.80;;;;;;4968422;28;20599;-76
2023/08/26 11:57:58;;;;;;;3.80;1.80;;;34.20;42.30;;;;;;4977967;28;21156;-76
2023/08/26 12:00:24;;;;;;;3.00;1.80;;;33.70;42.10;;;;;;4973541;28;20748;-76
2023/08/26 12:02:52;;;;;;;1.97;1.30;;;33.30;42.20;;;;;;4973428;28;20688;-76
2023/08/26 12:05:19;;;;;;;1.50;0.70;;;32.80;42.20;;;;;;4979363;28;20654;-76
2023/08/26 12:07:56;;;;;;;1.43;0.60;;;32.40;42.50;;;;;;4944927;28;20697;-76
2023/08/26 12:10:23;;;;;;;1.50;0.60;;;31.80;42.70;;;;;;4962370;28;20675;-74
2023/08/26 12:12:49;;;;;;;2.50;0.70;;;31.30;43.00;;;;;;4969189;28;20640;-74
2023/08/26 12:15:18;;;;;;;1.90;0.67;;;30.90;43.20;;;;;;4969228;28;20595;-74
2023/08/26 12:17:48;;;;;;;2.07;0.60;;;30.40;43.60;;;;;;4972893;28;20658;-74
2023/08/26 12:20:31;;;;;;;2.27;0.67;;;30.00;43.90;;;;;;4974283;28;20595;-74
2023/08/26 12:23:02;;;;;;;2.20;0.60;;;29.70;44.60;;;;;;4972718;28;20729;-74
2023/08/26 12:25:35;;;;;;;2.47;0.50;;;29.30;44.80;;;;;;4974123;28;20592;-74
2023/08/26 12:28:26;;;;;;;1.90;0.60;;;29.00;45.20;;;;;;4973196;28;20598;-75
2023/08/26 12:30:52;;;;;;;3.30;0.60;;;28.80;45.90;;;;;;4964227;28;20643;-75
2023/08/26 12:33:18;;;;;;;3.90;2.47;;;28.70;46.20;;;;;;4966646;28;20747;-76
2023/08/26 12:35:45;;;;;;;10.27;7.30;;;28.60;46.70;;;;;;4955984;28;21016;-74
2023/08/26 12:38:11;;;;;;;4.93;3.63;;;28.60;47.40;;;;;;4963022;28;20996;-74
2023/08/26 12:40:39;;;;;;;3.70;2.80;;;28.70;47.70;;;;;;4970297;28;20600;-75
2023/08/26 12:43:05;;;;;;;2.33;1.20;;;28.70;47.80;;;;;;4957871;28;20984;-75
2023/08/26 12:45:35;;;;;;;4.30;1.60;;;28.70;47.70;;;;;;4967929;28;20587;-76
2023/08/26 12:48:02;;;;;;;1.90;1.00;;;28.70;47.70;;;;;;4974323;28;20619;-76
2023/08/26 12:50:28;;;;;;;2.03;1.20;;;28.60;47.70;;;;;;4962319;28;20678;-74